Time;durP1;ratioP1;P1;durP2;ratioP2;P2;SDS_P1;SDS_P2;PMS_P1;PMS_P2;Temp;Humidity;BMP_temperature;BMP_pressure;BME280_temperature;BME280_humidity;BME280_pressure;Samples;Min_cycle;Max_cycle;Signal;HPM_P1;HPM_P2
2022/04/21 00:01:00;;;;;;;6.68;3.63;;;;;;;13.48;39.49;101343.22;4955144;28;118655;-76
2022/04/21 00:03:28;;;;;;;6.65;3.55;;;;;;;13.47;39.35;101340.63;4955592;28;124486;-76
2022/04/21 00:05:55;;;;;;;6.50;3.80;;;;;;;13.44;39.37;101334.50;4953383;28;125199;-76
2022/04/21 00:08:22;;;;;;;5.97;3.53;;;;;;;13.43;39.49;101332.81;4959964;28;120452;-76
2022/04/21 00:10:49;;;;;;;6.20;3.50;;;;;;;13.43;39.50;101339.94;4954162;28;119954;-76
2022/04/21 00:13:17;;;;;;;6.05;3.85;;;;;;;13.41;39.50;101337.34;4951373;28;123913;-76
2022/04/21 00:15:45;;;;;;;4.97;3.53;;;;;;;13.39;39.55;101328.56;4956484;28;124162;-76
2022/04/21 00:18:12;;;;;;;7.18;3.83;;;;;;;13.37;39.54;101322.47;4949607;28;118756;-76
2022/04/21 00:20:39;;;;;;;6.72;3.65;;;;;;;13.35;39.42;101319.00;4963910;28;119125;-76
2022/04/21 00:25:53;;;;;;;5.57;3.78;;;;;;;13.28;39.64;101320.22;4956603;28;122895;-76
2022/04/21 00:28:21;;;;;;;6.78;3.70;;;;;;;13.27;39.58;101326.47;4969572;28;118259;-76
2022/04/21 00:30:48;;;;;;;7.05;3.45;;;;;;;13.26;39.77;101327.41;4949678;28;117950;-76
2022/04/21 00:33:16;;;;;;;8.93;3.42;;;;;;;13.23;39.49;101332.88;4953334;28;123939;-76
2022/04/21 00:35:43;;;;;;;6.45;3.67;;;;;;;13.22;39.50;101336.47;4956448;28;124147;-76
2022/04/21 00:38:10;;;;;;;5.95;3.75;;;;;;;13.19;39.73;101331.31;4952489;28;119819;-76
2022/04/21 00:40:38;;;;;;;6.50;3.80;;;;;;;13.16;39.59;101336.75;4958008;28;118590;-76
2022/04/21 00:43:06;;;;;;;5.97;3.63;;;;;;;13.13;39.50;101331.56;4959190;28;123273;-76
2022/04/21 00:45:33;;;;;;;5.05;3.50;;;;;;;13.09;39.74;101335.31;4951316;28;123537;-77
2022/04/21 00:48:04;;;;;;;6.28;3.65;;;;;;;13.04;39.78;101328.44;4975108;28;118111;-76
2022/04/21 00:50:34;;;;;;;6.15;3.53;;;;;;;13.01;40.05;101322.41;4974018;28;118241;-76
2022/04/21 00:53:02;;;;;;;8.57;3.72;;;;;;;12.98;39.95;101322.56;4957990;28;123728;-75
2022/04/21 00:55:31;;;;;;;5.68;3.60;;;;;;;12.96;39.85;101325.28;4961519;28;123094;-76
2022/04/21 00:58:01;;;;;;;5.63;3.72;;;;;;;12.93;39.90;101319.25;4962772;28;122445;-76
2022/04/21 01:00:28;;;;;;;5.43;3.47;;;;;;;12.91;40.15;101327.28;4961427;28;117895;-76
2022/04/21 01:02:57;;;;;;;6.47;3.60;;;;;;;12.89;39.97;101323.84;4975115;28;124396;-76
2022/04/21 01:05:30;;;;;;;5.25;3.55;;;;;;;12.86;39.66;101318.66;4955183;28;122919;-77
2022/04/21 01:07:58;;;;;;;6.15;3.40;;;;;;;12.83;40.05;101318.81;4949626;28;119082;-76
2022/04/21 01:10:28;;;;;;;4.65;3.40;;;;;;;12.80;39.92;101318.97;4955233;28;118683;-76
2022/04/21 01:12:55;;;;;;;5.28;3.70;;;;;;;12.78;40.03;101320.84;4956879;28;124212;-76
2022/04/21 01:15:23;;;;;;;5.97;3.30;;;;;;;12.74;40.17;101316.59;4952633;28;123721;-76
2022/04/21 01:17:52;;;;;;;5.90;3.58;;;;;;;12.70;40.33;101323.00;4956766;28;119022;-76
2022/04/21 01:20:21;;;;;;;4.47;3.40;;;;;;;12.66;40.23;101317.81;4958560;28;118791;-76
2022/04/21 01:22:49;;;;;;;5.70;3.40;;;;;;;12.64;40.07;101319.69;4968483;28;123082;-76
2022/04/21 01:25:16;;;;;;;6.65;3.55;;;;;;;12.63;40.40;101317.94;4959381;28;124538;-76
2022/04/21 01:27:45;;;;;;;5.65;3.70;;;;;;;12.60;40.27;101318.09;4966350;28;118135;-76
2022/04/21 01:30:13;;;;;;;5.95;3.13;;;;;;;12.59;40.26;101320.81;4948254;28;118102;-76
2022/04/21 01:32:42;;;;;;;5.68;3.40;;;;;;;12.56;40.01;101316.50;4974135;28;124019;-76
2022/04/21 01:35:11;;;;;;;6.05;3.70;;;;;;;12.54;40.36;101313.03;4971904;28;123830;-76
2022/04/21 01:43:11;;;;;;;7.68;3.72;;;;;;;12.47;40.79;101311.63;4950799;28;123710;-76
2022/04/21 01:45:39;;;;;;;6.82;3.97;;;;;;;12.43;40.79;101310.00;4974712;28;124384;-76
2022/04/21 01:48:06;;;;;;;8.35;3.30;;;;;;;12.40;40.67;101304.84;4951796;28;119963;-76
2022/04/21 01:50:33;;;;;;;9.48;3.95;;;;;;;12.38;40.54;101306.72;4975652;28;119084;-76
2022/04/21 01:53:00;;;;;;;5.55;3.42;;;;;;;12.37;40.67;101304.97;4955327;28;124508;-76
2022/04/21 01:55:28;;;;;;;4.40;3.20;;;;;;;12.35;40.85;101297.09;4958618;28;123958;-76
2022/04/21 01:57:55;;;;;;;4.70;3.15;;;;;;;12.37;40.83;101299.66;4959801;28;119290;-76
2022/04/21 02:00:23;;;;;;;6.53;3.58;;;;;;;12.38;40.66;101301.41;4942568;28;117801;-76
2022/04/21 02:02:50;;;;;;;5.95;3.58;;;;;;;12.40;40.82;101300.41;4952474;28;123887;-76
2022/04/21 02:05:17;;;;;;;5.35;3.30;;;;;;;12.39;40.49;101303.13;4957702;28;123039;-76
2022/04/21 02:07:46;;;;;;;5.93;3.70;;;;;;;12.40;40.63;101296.88;4956556;28;119995;-76
2022/04/21 02:10:15;;;;;;;4.50;3.10;;;;;;;12.39;40.86;101295.16;4978466;28;118656;-76
2022/04/21 02:12:43;;;;;;;7.45;3.60;;;;;;;12.38;40.90;101296.94;4954511;28;123893;-76
2022/04/21 02:15:10;;;;;;;6.38;3.97;;;;;;;12.36;40.52;101297.97;4952723;28;123894;-76
2022/04/21 02:17:38;;;;;;;6.95;3.50;;;;;;;12.33;40.92;101292.78;4951972;28;118732;-76
2022/04/21 02:20:08;;;;;;;6.07;3.90;;;;;;;12.29;41.00;101291.19;4961307;28;119189;-76
2022/04/21 02:22:35;;;;;;;8.40;3.65;;;;;;;12.23;41.22;101295.84;4960158;28;125185;-76
2022/04/21 02:25:06;;;;;;;7.30;3.42;;;;;;;12.16;41.08;101302.34;4956653;28;123935;-76
2022/04/21 02:27:35;;;;;;;6.47;3.63;;;;;;;12.12;40.97;101295.47;4950044;28;119134;-76
2022/04/21 02:30:13;;;;;;;6.07;3.33;;;;;;;12.09;41.10;101290.28;4954983;28;119443;-76
2022/04/21 02:32:40;;;;;;;7.10;3.72;;;;;;;12.07;40.91;101294.78;4951744;28;124249;-76
2022/04/21 02:35:09;;;;;;;4.95;3.45;;;;;;;12.04;41.05;101297.59;4956940;28;123263;-76
2022/04/21 02:37:42;;;;;;;6.88;3.75;;;;;;;11.99;40.97;101294.28;4950878;28;120720;-76
2022/04/21 02:40:10;;;;;;;5.05;3.33;;;;;;;11.96;41.26;101294.41;4958261;28;119654;-76
2022/04/21 02:42:40;;;;;;;5.70;3.88;;;;;;;11.94;41.15;101290.94;4975877;28;124639;-76
2022/04/21 02:45:09;;;;;;;5.78;3.70;;;;;;;11.91;41.39;101297.28;4938118;28;124273;-76
2022/04/21 02:47:38;;;;;;;6.93;3.80;;;;;;;11.90;40.99;101290.22;4958589;28;119457;-76
2022/04/21 02:50:06;;;;;;;5.93;3.30;;;;;;;11.90;41.60;101294.66;4958387;28;118742;-76
2022/04/21 02:52:35;;;;;;;6.47;3.92;;;;;;;11.88;41.26;101292.06;4967911;28;123986;-76
2022/04/21 02:57:47;;;;;;;8.05;3.92;;;;;;;11.87;41.32;101296.50;4949650;28;119372;-76
2022/04/21 03:00:15;;;;;;;6.80;4.00;;;;;;;11.85;41.19;101295.72;4953484;28;118442;-76
2022/04/21 03:02:42;;;;;;;6.43;4.18;;;;;;;11.82;41.41;101298.47;4955644;28;124292;-76
2022/04/21 03:05:11;;;;;;;5.88;3.90;;;;;;;11.82;41.58;101298.47;4956841;28;122242;-76
2022/04/21 03:07:39;;;;;;;6.85;4.30;;;;;;;11.83;41.60;101300.22;4958446;28;118980;-76
2022/04/21 03:10:06;;;;;;;7.07;4.35;;;;;;;11.80;41.28;101289.72;4961776;28;118082;-76
2022/04/21 03:12:33;;;;;;;8.85;4.55;;;;;;;11.81;41.44;101295.88;4955630;28;123903;-76
2022/04/21 03:15:01;;;;;;;7.40;4.07;;;;;;;11.81;41.58;101291.47;4953578;28;123854;-76
2022/04/21 03:17:31;;;;;;;8.20;4.10;;;;;;;11.79;41.55;101288.03;4955488;28;119314;-76
2022/04/21 03:19:58;;;;;;;7.82;4.13;;;;;;;11.79;41.52;101282.72;4969863;28;118868;-76
2022/04/21 03:25:11;;;;;;;;;;;;;;;11.71;40.97;101279.50;4956248;28;124190;-76
2022/04/21 03:27:38;;;;;;;7.35;4.45;;;;;;;11.70;40.91;101283.09;4953398;28;120183;-76
2022/04/21 03:30:06;;;;;;;8.95;4.50;;;;;;;11.65;41.38;101285.09;4938504;28;119193;-76
2022/04/21 03:32:35;;;;;;;7.43;4.43;;;;;;;11.60;41.46;101281.75;4951810;28;123827;-76
2022/04/21 03:35:03;;;;;;;9.00;4.00;;;;;;;11.57;41.50;101281.91;4972785;28;124488;-76
2022/04/21 03:37:30;;;;;;;5.80;3.92;;;;;;;11.55;41.73;101289.06;4956709;28;97296;-76
2022/04/21 03:39:57;;;;;;;7.38;4.32;;;;;;;11.54;41.67;101287.31;4958385;28;119656;-76
2022/04/21 03:42:27;;;;;;;7.13;3.70;;;;;;;11.52;41.66;101289.19;4961323;28;123657;-76
2022/04/21 03:44:55;;;;;;;8.18;4.65;;;;;;;11.49;41.53;101288.38;4959131;28;124263;-76
2022/04/21 03:47:22;;;;;;;6.57;4.13;;;;;;;11.48;41.40;101294.59;4960036;28;119052;-76
2022/04/21 03:49:50;;;;;;;5.75;4.03;;;;;;;11.46;41.79;101291.16;4951421;28;118980;-76
2022/04/21 03:52:17;;;;;;;8.45;4.30;;;;;;;11.45;41.62;101294.75;4956768;28;124165;-76
2022/04/21 03:54:44;;;;;;;7.47;4.05;;;;;;;11.42;41.85;101297.50;4963441;28;123538;-76
2022/04/21 03:57:11;;;;;;;9.50;4.03;;;;;;;11.40;41.60;101291.41;4956870;28;118167;-76
2022/04/21 03:59:39;;;;;;;6.50;4.18;;;;;;;11.38;41.69;101298.56;4971029;28;118111;-76
2022/04/21 04:02:06;;;;;;;7.78;4.07;;;;;;;11.36;41.89;101300.44;4954451;28;123502;-76
2022/04/21 04:04:35;;;;;;;8.32;4.15;;;;;;;11.33;41.70;101294.38;4972531;28;124457;-76
2022/04/21 04:12:37;;;;;;;8.70;4.28;;;;;;;11.21;41.87;101295.75;4951071;28;123040;-76
2022/04/21 04:15:06;;;;;;;7.65;4.60;;;;;;;11.18;42.00;101299.38;4961520;28;123791;-76
2022/04/21 04:17:34;;;;;;;7.57;4.60;;;;;;;11.16;41.73;101308.31;4961924;28;120924;-76
2022/04/21 04:20:01;;;;;;;8.95;5.03;;;;;;;11.12;42.06;101301.44;4958764;28;119732;-76
2022/04/21 04:22:28;;;;;;;6.93;4.15;;;;;;;11.10;42.09;101309.44;4949129;28;123787;-76
2022/04/21 04:24:56;;;;;;;7.75;4.78;;;;;;;11.06;41.92;101313.13;4954572;28;124515;-76
2022/04/21 04:27:24;;;;;;;9.65;4.85;;;;;;;11.03;42.25;101308.78;4957238;28;119428;-76
2022/04/21 04:29:52;;;;;;;7.07;4.53;;;;;;;11.00;41.93;101308.94;4950047;28;119133;-76
2022/04/21 04:32:20;;;;;;;7.93;4.40;;;;;;;10.95;42.30;101308.25;4957756;28;124721;-76
2022/04/21 04:34:47;;;;;;;9.32;4.30;;;;;;;10.92;42.08;101305.69;4972338;28;123415;-76
2022/04/21 04:37:14;;;;;;;11.82;3.97;;;;;;;10.87;42.55;101302.41;4955035;28;119469;-76
2022/04/21 04:39:41;;;;;;;8.55;4.60;;;;;;;10.82;42.10;101305.19;4963278;28;118590;-76
2022/04/21 04:42:17;;;;;;;7.43;4.40;;;;;;;10.79;42.62;101299.16;4955203;28;124057;-76
2022/04/21 04:44:45;;;;;;;8.85;4.15;;;;;;;10.76;42.63;101309.91;4951743;28;125262;-76
2022/04/21 04:47:13;;;;;;;8.38;4.03;;;;;;;10.74;42.57;101311.72;4952935;28;119288;-76
2022/04/21 04:49:41;;;;;;;6.85;4.18;;;;;;;10.70;42.69;101317.16;4966313;28;120294;-75
2022/04/21 04:52:08;;;;;;;7.63;4.53;;;;;;;10.68;42.49;101308.41;4953697;28;123749;-76
2022/04/21 04:54:35;;;;;;;7.95;4.45;;;;;;;10.66;42.54;101315.53;4955818;28;123854;-76
2022/04/21 04:57:03;;;;;;;7.50;4.20;;;;;;;10.65;42.61;101324.41;4972833;28;119417;-76
2022/04/21 04:59:30;;;;;;;9.82;4.63;;;;;;;10.65;42.49;101323.53;4953717;28;118807;-75
2022/04/21 05:01:58;;;;;;;8.20;4.40;;;;;;;10.62;42.69;101313.91;4974096;28;123604;-75
2022/04/21 05:04:25;;;;;;;9.13;4.68;;;;;;;10.60;42.65;101315.75;4956861;28;123856;-75
2022/04/21 05:06:57;;;;;;;8.57;4.60;;;;;;;10.59;42.73;101321.97;4958019;28;119668;-75
2022/04/21 05:09:25;;;;;;;8.05;4.75;;;;;;;10.59;42.82;101319.34;4957860;28;119479;-75
2022/04/21 05:11:55;;;;;;;9.63;4.78;;;;;;;10.59;42.90;101324.63;4975658;28;124584;-75
2022/04/21 05:14:23;;;;;;;9.98;4.97;;;;;;;10.60;42.98;101321.03;4975356;28;124599;-76
2022/04/21 05:16:51;;;;;;;8.13;4.97;;;;;;;10.60;42.93;101313.09;4963405;28;119899;-76
2022/04/21 05:19:20;;;;;;;12.80;4.53;;;;;;;10.61;43.05;101314.84;4959560;28;119275;-76
2022/04/21 05:21:49;;;;;;;9.23;5.07;;;;;;;10.62;43.19;101308.59;4951619;28;124231;-76
2022/04/21 05:24:17;;;;;;;9.13;4.70;;;;;;;10.63;43.47;101313.00;4952636;28;124363;-76
2022/04/21 05:26:45;;;;;;;9.98;4.90;;;;;;;10.64;43.41;101304.13;4957611;28;119047;-76
2022/04/21 05:32:03;;;;;;;11.35;4.47;;;;;;;10.69;43.53;101309.25;4964479;28;123291;-76
2022/04/21 05:34:31;;;;;;;9.05;4.95;;;;;;;10.71;43.68;101318.00;4936205;28;124073;-76
2022/04/21 05:37:00;;;;;;;20.98;5.53;;;;;;;10.73;43.78;101313.50;4952703;28;118608;-76
2022/04/21 05:39:29;;;;;;;8.10;4.78;;;;;;;10.75;43.46;101309.00;4959758;28;118792;-76
2022/04/21 05:41:58;;;;;;;8.13;4.78;;;;;;;10.79;43.79;101310.59;4975615;28;123881;-76
2022/04/21 05:44:27;;;;;;;9.43;4.90;;;;;;;10.82;43.84;101307.84;4955688;28;124770;-76
2022/04/21 05:46:54;;;;;;;11.52;5.32;;;;;;;10.88;43.93;101309.41;4953348;28;119137;-76
2022/04/21 05:49:22;;;;;;;9.18;4.70;;;;;;;10.94;44.36;101309.16;4964562;28;119005;-76
2022/04/21 05:51:49;;;;;;;10.48;5.05;;;;;;;11.00;43.93;101308.94;4951648;28;124811;-75
2022/04/21 05:54:17;;;;;;;10.35;4.90;;;;;;;11.06;44.18;101311.34;4977040;28;122979;-76
2022/04/21 05:56:44;;;;;;;7.40;4.43;;;;;;;11.13;44.51;101303.13;4948643;28;120245;-77
2022/04/21 05:59:11;;;;;;;17.92;4.93;;;;;;;11.20;44.33;101299.31;4954592;28;119350;-76
2022/04/21 06:01:38;;;;;;;12.27;5.00;;;;;;;11.28;44.57;101303.41;4951092;28;122706;-76
2022/04/21 06:04:05;;;;;;;8.90;4.85;;;;;;;11.36;44.17;101295.13;4950989;28;124060;-76
2022/04/21 06:06:33;;;;;;;8.45;4.57;;;;;;;11.43;44.47;101296.59;4952056;28;119515;-76
2022/04/21 06:09:00;;;;;;;7.55;4.60;;;;;;;11.54;44.35;101297.94;4971214;28;118411;-76
2022/04/21 06:11:27;;;;;;;5.90;4.38;;;;;;;11.63;44.48;101297.56;4954628;28;123848;-76
2022/04/21 06:13:54;;;;;;;7.80;4.57;;;;;;;11.75;44.73;101296.16;4958719;28;124281;-75
2022/04/21 06:16:22;;;;;;;8.02;4.78;;;;;;;11.84;44.64;101291.31;4952264;28;119846;-75
2022/04/21 06:18:50;;;;;;;7.38;4.32;;;;;;;11.94;44.53;101296.25;4953679;28;117073;-76
2022/04/21 06:21:17;;;;;;;10.18;4.40;;;;;;;12.03;44.60;101301.16;4939576;28;124074;-76
2022/04/21 06:23:45;;;;;;;8.43;4.53;;;;;;;12.12;44.74;101300.78;4952384;28;124282;-76
2022/04/21 06:26:12;;;;;;;7.75;3.92;;;;;;;12.21;44.70;101295.06;4960014;28;120079;-76
2022/04/21 06:28:41;;;;;;;9.32;4.32;;;;;;;12.31;44.84;101302.63;4946863;28;118940;-76
2022/04/21 06:31:09;;;;;;;7.78;4.72;;;;;;;12.40;44.43;101288.91;4950159;28;123837;-76
2022/04/21 06:33:36;;;;;;;8.18;4.60;;;;;;;12.49;44.79;101288.50;4951185;28;124798;-76
2022/04/21 06:36:06;;;;;;;6.35;4.22;;;;;;;12.60;44.59;101287.97;4956503;28;119084;-76
2022/04/21 06:38:33;;;;;;;6.20;4.13;;;;;;;12.71;44.65;101287.50;4953204;28;120197;-77
2022/04/21 06:41:01;;;;;;;8.75;4.60;;;;;;;12.80;44.61;101281.75;4952610;28;124736;-76
2022/04/21 06:48:59;;;;;;;5.43;3.60;;;;;;;13.16;44.18;101278.25;4953353;28;119655;-74
2022/04/21 06:51:27;;;;;;;9.50;4.80;;;;;;;13.27;44.48;101278.59;4971808;28;122995;-74
2022/04/21 06:53:55;;;;;;;8.15;4.20;;;;;;;13.41;44.28;101275.25;4950859;28;123768;-75
2022/04/21 06:56:22;;;;;;;9.32;4.30;;;;;;;13.56;44.34;101276.28;4961809;28;118223;-74
2022/04/21 06:58:55;;;;;;;5.75;4.00;;;;;;;13.72;44.23;101274.59;4949523;28;118667;-74
2022/04/21 07:01:22;;;;;;;6.07;4.10;;;;;;;13.89;44.29;101278.19;4945801;28;123819;-74
2022/04/21 07:03:50;;;;;;;7.72;4.18;;;;;;;14.06;43.98;101279.97;4950927;28;123726;-74
2022/04/21 07:06:17;;;;;;;6.45;4.20;;;;;;;14.23;43.96;101284.41;4957514;28;119019;-74
2022/04/21 07:08:44;;;;;;;7.47;4.50;;;;;;;14.39;44.01;101277.28;4977029;28;117865;-74
2022/04/21 07:11:12;;;;;;;6.60;3.85;;;;;;;14.55;43.84;101288.84;4985186;28;124951;-74
2022/04/21 07:13:39;;;;;;;7.20;4.20;;;;;;;14.68;43.61;101282.88;4986360;28;124118;-73
2022/04/21 07:16:06;;;;;;;7.85;4.22;;;;;;;14.76;43.22;101280.63;4986268;28;119114;-76
2022/04/21 07:18:34;;;;;;;7.10;3.83;;;;;;;14.84;43.17;101281.06;4987437;28;118811;-75
2022/04/21 07:21:01;;;;;;;5.75;4.00;;;;;;;14.94;43.07;101287.63;4964311;28;122918;-74
2022/04/21 07:23:29;;;;;;;5.45;4.03;;;;;;;15.03;42.72;101290.69;4947701;28;123501;-74
2022/04/21 07:25:56;;;;;;;6.10;3.53;;;;;;;15.12;42.82;101288.38;4963099;28;119704;-74
2022/04/21 07:28:23;;;;;;;7.43;3.72;;;;;;;15.23;42.82;101286.91;4951286;28;118891;-74
2022/04/21 07:30:50;;;;;;;7.57;3.78;;;;;;;15.36;42.75;101291.44;4949702;28;124547;-74
2022/04/21 07:33:18;;;;;;;6.75;3.80;;;;;;;15.50;42.73;101292.44;4954936;28;123236;-73
2022/04/21 07:35:45;;;;;;;6.22;3.83;;;;;;;15.64;42.43;101292.50;4959270;28;119862;-74
2022/04/21 07:38:13;;;;;;;5.65;3.80;;;;;;;15.76;42.33;101294.50;4962110;28;118895;-74
2022/04/21 07:40:41;;;;;;;5.43;3.70;;;;;;;15.87;42.08;101290.31;4965668;28;123386;-75
2022/04/21 07:43:08;;;;;;;5.65;4.22;;;;;;;15.94;42.15;101291.66;4974204;28;123539;-75
2022/04/21 07:45:40;;;;;;;6.40;3.70;;;;;;;16.05;41.88;101289.19;4959463;28;119251;-75
2022/04/21 07:48:07;;;;;;;4.80;3.47;;;;;;;16.14;41.88;101298.44;4956522;28;118594;-75
2022/04/21 07:50:35;;;;;;;6.90;3.47;;;;;;;16.27;41.73;101295.88;4958490;28;124864;-75
2022/04/21 07:53:20;;;;;;;5.90;3.85;;;;;;;16.41;41.47;101295.88;4968132;28;121745;-74
2022/04/21 07:55:50;;;;;;;5.60;3.38;;;;;;;16.50;41.11;101289.97;4951868;28;119159;-75
2022/04/21 07:58:18;;;;;;;6.50;3.60;;;;;;;16.55;40.73;101287.84;4950758;28;119229;-74
2022/04/21 08:00:45;;;;;;;5.47;3.80;;;;;;;16.61;41.00;101297.28;4950756;28;123772;-73
2022/04/21 08:03:15;;;;;;;5.30;3.35;;;;;;;16.70;40.64;101293.19;4951543;28;123641;-74
2022/04/21 08:05:42;;;;;;;5.13;3.60;;;;;;;16.77;40.47;101296.34;4951225;28;119003;-74
2022/04/21 08:08:11;;;;;;;6.05;3.75;;;;;;;16.82;40.37;101299.56;4969951;28;118420;-73
2022/04/21 08:10:38;;;;;;;8.20;3.97;;;;;;;16.87;40.55;101293.00;4952533;28;124563;-74
2022/04/21 08:13:05;;;;;;;4.88;3.50;;;;;;;16.92;40.26;101290.03;4969325;28;123261;-75
2022/04/21 08:15:35;;;;;;;6.65;3.63;;;;;;;17.01;40.50;101299.25;4951935;28;118358;-74
2022/04/21 08:18:05;;;;;;;6.10;3.92;;;;;;;17.12;40.54;101286.03;4953086;28;119803;-74
2022/04/21 08:20:34;;;;;;;6.68;3.72;;;;;;;17.25;40.24;101281.63;4952313;28;123886;-74
2022/04/21 08:23:04;;;;;;;5.35;3.45;;;;;;;17.36;40.11;101288.06;4954058;28;123866;-74
2022/04/21 08:34:28;;;;;;;3.97;2.67;;;;;;;17.79;38.58;101291.38;4965778;28;122795;-75
2022/04/21 08:36:56;;;;;;;4.78;3.25;;;;;;;17.84;38.62;101283.94;4950876;28;119027;-75
2022/04/21 08:39:25;;;;;;;4.18;2.97;;;;;;;17.92;38.56;101291.44;4950838;28;118882;-75
2022/04/21 08:42:03;;;;;;;5.97;3.20;;;;;;;17.98;38.26;101285.66;4950618;28;124195;-75
2022/04/21 08:44:33;;;;;;;5.30;3.22;;;;;;;18.07;38.30;101289.53;4933272;28;122860;-75
2022/04/21 08:47:04;;;;;;;4.68;2.90;;;;;;;18.18;38.24;101296.84;4949453;28;118917;-75
2022/04/21 08:49:33;;;;;;;7.43;3.15;;;;;;;18.29;37.83;101278.16;4964373;28;118479;-75
2022/04/21 08:52:01;;;;;;;7.03;2.42;;;;;;;18.37;37.04;101283.84;4963708;28;123092;-75
2022/04/21 08:54:30;;;;;;;4.18;2.60;;;;;;;18.43;36.70;101286.06;4950555;28;124813;-74
2022/04/21 08:56:57;;;;;;;5.03;2.00;;;;;;;18.49;36.26;101280.25;4949212;28;119300;-75
2022/04/21 08:59:25;;;;;;;6.93;2.60;;;;;;;18.54;35.99;101287.16;4950264;28;119137;-73
2022/04/21 09:01:52;;;;;;;4.05;2.08;;;;;;;18.57;35.29;101286.91;4947575;28;124610;-73
2022/04/21 09:04:19;;;;;;;4.55;1.90;;;;;;;18.58;34.90;101270.72;4954609;28;124266;-74
2022/04/21 09:06:46;;;;;;;3.15;1.73;;;;;;;18.60;34.60;101273.28;4969048;28;119141;-74
2022/04/21 09:09:16;;;;;;;3.72;1.65;;;;;;;18.63;34.64;101281.13;4970241;28;119982;-74
2022/04/21 09:11:45;;;;;;;3.42;1.73;;;;;;;18.69;34.13;101267.25;4966912;28;124054;-73
2022/04/21 09:14:16;;;;;;;3.05;2.00;;;;;;;18.71;33.78;101278.72;4969181;28;123673;-74
2022/04/21 09:16:44;;;;;;;2.60;1.70;;;;;;;18.74;33.33;101273.16;4959575;28;120264;-74
2022/04/21 09:19:13;;;;;;;3.28;2.15;;;;;;;18.75;33.17;101269.47;4954784;28;120283;-75
2022/04/21 09:21:41;;;;;;;2.25;1.65;;;;;;;18.76;33.22;101265.84;4972860;28;124035;-74
2022/04/21 09:24:22;;;;;;;2.40;1.77;;;;;;;18.80;33.45;101264.69;4955316;28;123927;-74
2022/04/21 09:26:50;;;;;;;2.22;1.38;;;;;;;18.90;32.96;101261.31;4947961;28;119090;-74
2022/04/21 09:29:30;;;;;;;2.92;1.45;;;;;;;18.96;32.39;101255.50;4952270;28;118749;-73
2022/04/21 09:32:03;;;;;;;3.50;1.60;;;;;;;19.00;31.98;101246.25;4950951;28;123942;-74
2022/04/21 09:34:36;;;;;;;2.38;1.45;;;;;;;19.03;31.87;101256.75;4954185;28;124830;-74
2022/04/21 09:37:06;;;;;;;2.63;1.60;;;;;;;19.10;32.16;101258.03;4950043;28;117515;-74
2022/04/21 09:39:41;;;;;;;2.63;1.58;;;;;;;19.15;31.67;101255.84;4949212;28;118692;-73
2022/04/21 09:42:08;;;;;;;2.45;1.60;;;;;;;19.22;31.81;101246.34;4965805;28;122095;-75
2022/04/21 09:47:29;;;;;;;3.47;1.60;;;;;;;19.28;31.81;101238.81;4952874;28;119671;-75
2022/04/21 09:50:09;;;;;;;4.50;2.05;;;;;;;19.32;31.64;101234.91;4951432;28;119220;-74
2022/04/21 09:52:53;;;;;;;3.38;1.70;;;;;;;19.41;32.01;101244.97;4955773;28;123934;-74
2022/04/21 09:55:21;;;;;;;4.47;1.92;;;;;;;19.55;31.94;101236.72;4948993;28;122770;-75
2022/04/21 09:57:52;;;;;;;2.80;1.80;;;;;;;19.65;30.93;101236.88;4965270;28;119267;-73
2022/04/21 10:00:21;;;;;;;2.38;1.67;;;;;;;19.64;30.54;101235.97;4949779;28;118916;-75
2022/04/21 10:02:49;;;;;;;3.00;1.77;;;;;;;19.63;30.86;101234.28;4947064;28;124189;-74
2022/04/21 10:05:17;;;;;;;2.67;1.50;;;;;;;19.67;30.99;101234.06;4948660;28;123796;-75
2022/04/21 10:07:45;;;;;;;3.13;1.90;;;;;;;19.70;30.24;101231.13;4948145;28;119433;-75
2022/04/21 10:10:12;;;;;;;1.98;1.45;;;;;;;19.69;30.81;101232.09;4947655;28;120122;-75
2022/04/21 10:12:40;;;;;;;6.20;2.00;;;;;;;19.73;30.51;101222.84;4947116;28;124079;-75
2022/04/21 10:15:08;;;;;;;3.25;1.80;;;;;;;19.75;30.58;101218.22;4963418;28;123711;-74
2022/04/21 10:17:35;;;;;;;4.05;1.77;;;;;;;19.80;30.75;101210.66;4948935;28;119349;-75
2022/04/21 10:20:04;;;;;;;2.92;2.05;;;;;;;19.88;30.84;101220.81;4947945;28;119697;-75
2022/04/21 10:22:35;;;;;;;5.80;2.03;;;;;;;19.93;30.40;101208.72;4947569;28;124088;-75
2022/04/21 10:25:04;;;;;;;2.90;1.92;;;;;;;20.00;30.63;101209.06;4947203;28;123660;-75
2022/04/21 10:27:39;;;;;;;3.85;2.00;;;;;;;20.07;30.59;101198.69;4948792;28;119143;-75
2022/04/21 10:30:21;;;;;;;3.08;2.03;;;;;;;20.10;30.54;101201.13;4945923;28;119411;-75
2022/04/21 10:32:53;;;;;;;3.55;1.80;;;;;;;20.11;30.34;101195.63;4945268;28;123864;-74
2022/04/21 10:35:23;;;;;;;2.33;1.60;;;;;;;20.13;30.28;101199.06;4946995;28;123325;-76
2022/04/21 10:38:22;;;;;;;4.20;2.30;;;;;;;20.15;30.02;101196.25;4948499;28;119104;-75
2022/04/21 10:41:06;;;;;;;3.35;2.13;;;;;;;20.15;30.46;101196.25;4946191;28;118080;-75
2022/04/21 10:43:48;;;;;;;3.63;1.80;;;;;;;20.21;30.37;101187.69;4950943;28;123444;-75
2022/04/21 10:46:29;;;;;;;2.95;1.95;;;;;;;20.29;29.88;101187.09;4949778;28;124888;-75
2022/04/21 10:48:58;;;;;;;2.83;1.77;;;;;;;20.33;30.01;101184.00;4952612;28;118858;-75
2022/04/21 10:57:36;;;;;;;2.57;1.90;;;;;;;20.56;29.75;101167.81;4954000;28;123645;-75
2022/04/21 11:00:10;;;;;;;2.17;1.60;;;;;;;20.66;29.73;101168.78;4948646;28;120128;-75
2022/04/21 11:02:43;;;;;;;2.90;1.60;;;;;;;20.74;29.23;101170.88;4954316;28;119909;-75
2022/04/21 11:05:22;;;;;;;3.28;1.77;;;;;;;20.80;29.27;101165.81;4945780;28;124549;-75
2022/04/21 11:07:54;;;;;;;3.65;1.60;;;;;;;20.87;29.45;101155.41;4948326;28;123935;-76
2022/04/21 11:10:25;;;;;;;4.78;1.60;;;;;;;20.96;28.56;101169.94;4945306;28;118150;-75
2022/04/21 11:12:53;;;;;;;2.40;1.83;;;;;;;21.04;28.50;101172.84;4950095;28;119174;-74
2022/04/21 11:15:50;;;;;;;4.18;1.80;;;;;;;21.04;28.30;101162.06;4949187;28;124007;-74
2022/04/21 11:18:18;;;;;;;2.53;1.90;;;;;;;21.07;28.57;101156.41;4942492;28;122775;-74
2022/04/21 11:20:47;;;;;;;2.95;1.70;;;;;;;21.12;28.58;101154.19;4950717;28;119740;-76
2022/04/21 11:23:24;;;;;;;2.78;1.73;;;;;;;21.20;28.63;101151.69;4967622;28;118148;-75
2022/04/21 11:25:52;;;;;;;4.22;1.80;;;;;;;21.27;28.06;101151.19;4963408;28;124990;-75
2022/04/21 11:28:25;;;;;;;2.88;1.85;;;;;;;21.31;28.05;101152.63;4949472;28;123798;-76
2022/04/21 11:30:57;;;;;;;3.10;1.60;;;;;;;21.36;28.04;101155.75;4949174;28;119333;-76
2022/04/21 11:33:25;;;;;;;13.25;1.95;;;;;;;21.43;28.26;101146.16;4948217;28;118514;-74
2022/04/21 11:36:06;;;;;;;4.90;1.77;;;;;;;21.51;28.15;101151.81;4948156;28;123995;-75
2022/04/21 11:38:34;;;;;;;2.63;1.65;;;;;;;21.60;27.54;101142.03;4949382;28;122020;-75
2022/04/21 11:41:02;;;;;;;2.03;1.55;;;;;;;21.64;27.60;101134.53;4964613;28;119000;-75
2022/04/21 11:43:30;;;;;;;2.25;1.50;;;;;;;21.70;27.42;101131.31;4965087;28;119659;-75
2022/04/21 11:45:58;;;;;;;3.97;1.60;;;;;;;21.74;27.29;101133.63;4968356;28;124037;-75
2022/04/21 11:48:43;;;;;;;3.22;1.60;;;;;;;21.81;27.01;101128.53;4967755;28;123590;-76
2022/04/21 11:51:24;;;;;;;2.88;1.75;;;;;;;21.81;26.77;101136.59;4964847;28;119254;-74
2022/04/21 11:53:52;;;;;;;2.45;1.77;;;;;;;21.76;27.06;101114.63;4965418;28;118932;-75
2022/04/21 11:56:21;;;;;;;4.68;1.88;;;;;;;21.67;27.01;101137.84;4966617;28;124755;-75
2022/04/21 11:58:49;;;;;;;3.03;1.70;;;;;;;21.60;27.01;101138.50;4966725;28;123721;-75
2022/04/21 12:06:57;;;;;;;3.63;2.00;;;;;;;21.22;27.26;101129.16;4956764;28;124834;-74
2022/04/21 12:09:26;;;;;;;4.22;2.00;;;;;;;21.08;27.37;101125.81;4961184;28;124550;-75
2022/04/21 12:11:57;;;;;;;3.08;1.95;;;;;;;20.98;27.51;101125.75;4949431;28;118153;-74
2022/04/21 12:14:26;;;;;;;2.85;1.90;;;;;;;20.94;27.59;101118.88;4963067;28;117809;-75
2022/04/21 12:16:55;;;;;;;3.70;2.00;;;;;;;20.91;27.92;101123.72;4951849;28;124023;-75